Terminal Aerodrome Forecast
Issued by NWS Greer, SC

Home | Current Version | Previous Version | Text Only | Print | Product List | Glossary On
Versions: 1 2 3 4 5 6 7 8 9 10 11 12 13
000
FTUS42 KGSP 262339
TAFAVL
TAF
KAVL 262339Z 2700/2724 26003KT P6SM SCT120
     FM270500 VRB02KT 6SM BR SCT070
     FM270900 32003KT 4SM BR SCT030
     FM271300 33003KT P6SM FEW120
     FM271500 33004KT P6SM SCT060
     FM271700 26004KT P6SM BKN045 PROB30 2718/2724 4SM -TSRA
      BKN045CB=

USA.gov is the U.S. government's official web portal to all federal, state and local government web resources and services.